Terminal Aerodrome Forecast
Issued by NWS

Home | Current Version | Previous Version | Graphics & Text | Print | Product List | Glossary Off
Versions: 1 2 3 4 5 6 7 8 9 10 11 12 13 14 15 16 17 18

000
FTUS43 KDDC 241120
TAFHYS
TAF
KHYS 241120Z 2412/2512 18012KT P6SM SCT200 PROB30 2503/2507 4SM
      -TSRA BKN080CB
     FM251100 18008KT P6SM FEW250=

USA.gov is the U.S. government's official web portal to all federal, state and local government web resources and services.